Time;durP1;ratioP1;P1;durP2;ratioP2;P2;SDS_P1;SDS_P2;PMS_P1;PMS_P2;Temp;Humidity;BMP_temperature;BMP_pressure;BME280_temperature;BME280_humidity;BME280_pressure;Samples;Min_cycle;Max_cycle;Signal;HPM_P1;HPM_P2
2022/04/15 00:02:05;;;;;;;40.60;21.40;;;5.50;99.90;;;;;;5079358;28;20135;-27
2022/04/15 00:04:34;;;;;;;34.17;20.13;;;5.60;99.90;;;;;;5114881;28;20378;-27
2022/04/15 00:07:02;;;;;;;41.95;21.08;;;5.70;99.90;;;;;;5096035;28;20541;-27
2022/04/15 00:09:30;;;;;;;30.20;18.63;;;5.90;99.90;;;;;;5114209;28;20381;-27
2022/04/15 00:12:00;;;;;;;29.00;19.02;;;6.00;99.90;;;;;;5114023;28;20051;-27
2022/04/15 00:14:28;;;;;;;31.27;18.95;;;6.00;99.90;;;;;;5097295;28;20051;-27
2022/04/15 00:16:57;;;;;;;26.92;16.63;;;6.10;99.90;;;;;;5113935;28;20039;-27
2022/04/15 00:19:23;;;;;;;26.00;16.52;;;6.10;99.90;;;;;;5095770;28;20092;-27
2022/04/15 00:21:51;;;;;;;24.30;16.02;;;6.20;99.90;;;;;;5114461;28;20063;-27
2022/04/15 00:24:17;;;;;;;28.13;16.52;;;6.20;99.90;;;;;;5118027;28;20397;-28
2022/04/15 00:26:46;;;;;;;24.73;16.00;;;6.20;99.90;;;;;;5118314;28;20051;-26
2022/04/15 00:29:12;;;;;;;26.52;15.75;;;6.30;99.90;;;;;;5118972;27;20049;-27
2022/04/15 00:31:41;;;;;;;33.85;17.95;;;6.30;99.90;;;;;;5118389;28;20465;-27
2022/04/15 00:34:07;;;;;;;24.75;15.30;;;6.30;99.90;;;;;;5117843;28;20499;-27
2022/04/15 00:36:33;;;;;;;24.92;14.68;;;6.40;99.90;;;;;;5099443;28;20052;-27
2022/04/15 00:38:58;;;;;;;23.35;14.13;;;6.40;99.90;;;;;;5117728;28;20040;-27
2022/04/15 00:41:30;;;;;;;10.65;7.95;;;6.40;99.90;;;;;;5099556;28;20496;-27
2022/04/15 00:43:58;;;;;;;14.50;8.95;;;6.50;99.90;;;;;;5100958;28;20497;-27
2022/04/15 00:46:24;;;;;;;20.73;10.38;;;6.80;99.90;;;;;;5117960;28;20404;-27
2022/04/15 00:48:50;;;;;;;18.45;9.93;;;7.00;99.90;;;;;;5099380;28;20040;-27
2022/04/15 00:51:16;;;;;;;22.40;9.00;;;7.20;99.90;;;;;;5117543;28;20127;-27
2022/04/15 00:53:44;;;;;;;12.93;8.18;;;7.30;99.90;;;;;;5117508;28;20051;-27
2022/04/15 00:56:12;;;;;;;18.65;8.43;;;7.30;99.90;;;;;;5117155;28;20043;-27
2022/04/15 00:58:40;;;;;;;12.82;8.13;;;7.40;99.90;;;;;;5122915;27;20035;-28
2022/04/15 01:01:07;;;;;;;11.40;5.00;;;7.40;99.90;;;;;;5119566;27;20043;-27
2022/04/15 01:03:36;;;;;;;8.35;4.78;;;7.40;99.90;;;;;;5137887;27;20051;-27
2022/04/15 01:06:04;;;;;;;9.52;5.57;;;7.50;99.90;;;;;;5137793;27;20058;-28
2022/04/15 01:08:32;;;;;;;12.57;5.55;;;7.50;94.70;;;;;;5108176;28;20166;-27
2022/04/15 01:11:00;;;;;;;14.98;6.30;;;7.50;62.70;;;;;;5117129;28;20044;-27
2022/04/15 01:13:27;;;;;;;12.63;6.80;;;7.50;24.10;;;;;;5100203;27;20468;-27
2022/04/15 01:15:55;;;;;;;13.70;5.93;;;7.50;10.60;;;;;;5117094;28;20097;-27
2022/04/15 01:18:22;;;;;;;13.90;5.20;;;7.50;6.50;;;;;;5116681;28;20492;-28
2022/04/15 01:20:50;;;;;;;17.80;6.03;;;7.60;1.00;;;;;;5116952;28;20056;-27
2022/04/15 01:23:16;;;;;;;12.13;6.68;;;7.60;1.00;;;;;;5098944;28;20104;-27
2022/04/15 01:25:42;;;;;;;15.18;5.72;;;7.60;1.00;;;;;;5116903;28;20096;-27
2022/04/15 01:28:09;;;;;;;12.35;6.38;;;7.50;1.00;;;;;;5117870;27;20389;-27
2022/04/15 01:30:35;;;;;;;15.75;6.15;;;7.50;1.00;;;;;;5117347;28;20054;-27
2022/04/15 01:33:02;;;;;;;16.10;6.50;;;7.50;1.00;;;;;;5098582;28;20366;-27
2022/04/15 01:35:29;;;;;;;20.67;7.07;;;7.50;1.00;;;;;;5116275;28;20513;-27
2022/04/15 01:37:59;;;;;;;18.27;7.40;;;7.60;1.00;;;;;;5116857;28;20054;-27
2022/04/15 01:40:25;;;;;;;10.68;5.53;;;7.50;1.00;;;;;;5098162;28;20126;-27
2022/04/15 01:42:51;;;;;;;16.17;6.93;;;7.50;1.00;;;;;;5117618;27;20123;-27
2022/04/15 01:45:17;;;;;;;21.00;7.97;;;7.50;1.00;;;;;;5098219;28;20203;-27
2022/04/15 01:47:42;;;;;;;23.90;9.30;;;7.50;32.00;;;;;;5099124;28;20048;-27
2022/04/15 01:50:10;;;;;;;24.30;9.50;;;7.60;99.90;;;;;;5116410;28;20405;-27
2022/04/15 01:52:37;;;;;;;19.83;8.15;;;7.50;99.90;;;;;;5116357;28;20040;-27
2022/04/15 01:55:03;;;;;;;15.20;8.30;;;7.50;99.90;;;;;;5099006;28;20039;-27
2022/04/15 01:57:29;;;;;;;19.05;8.20;;;7.60;99.90;;;;;;5100274;28;20136;-27
2022/04/15 01:59:54;;;;;;;19.30;9.23;;;7.60;99.90;;;;;;5117030;28;20089;-27
2022/04/15 02:02:20;;;;;;;21.00;10.15;;;7.60;99.90;;;;;;5116127;28;20496;-27
2022/04/15 02:04:46;;;;;;;24.58;11.15;;;7.60;99.90;;;;;;5097953;28;20039;-27
2022/04/15 02:07:14;;;;;;;27.52;12.00;;;7.60;99.90;;;;;;5116041;28;20048;-27
2022/04/15 02:09:40;;;;;;;30.35;12.60;;;7.60;99.90;;;;;;5116018;28;20047;-27
2022/04/15 02:12:06;;;;;;;30.50;12.70;;;7.60;99.90;;;;;;5115600;28;20539;-27
2022/04/15 02:14:34;;;;;;;30.27;12.90;;;7.60;99.90;;;;;;5098052;28;20043;-27
2022/04/15 02:17:00;;;;;;;29.02;12.65;;;7.60;99.90;;;;;;5115567;28;20500;-27
2022/04/15 02:19:28;;;;;;;24.67;12.05;;;7.60;99.90;;;;;;5115810;28;20101;-27
2022/04/15 02:21:54;;;;;;;27.98;12.25;;;7.60;99.90;;;;;;5097320;28;20139;-28
2022/04/15 02:24:20;;;;;;;26.63;12.80;;;7.60;99.90;;;;;;5097613;28;20123;-27
2022/04/15 02:26:45;;;;;;;25.33;12.27;;;7.60;99.90;;;;;;5115349;28;20090;-27
2022/04/15 02:29:11;;;;;;;32.30;12.45;;;7.60;99.90;;;;;;5115257;28;20036;-27
2022/04/15 02:31:37;;;;;;;21.30;12.02;;;7.60;99.90;;;;;;5097511;28;20082;-27
2022/04/15 02:34:06;;;;;;;21.08;11.48;;;7.60;99.90;;;;;;5097672;28;20036;-27
2022/04/15 02:36:32;;;;;;;22.85;11.38;;;7.60;99.90;;;;;;5098224;28;20105;-27
2022/04/15 02:38:58;;;;;;;26.35;13.13;;;7.60;99.90;;;;;;5115522;28;20381;-27
2022/04/15 02:41:24;;;;;;;21.83;13.07;;;7.50;99.90;;;;;;5097327;28;20047;-27
2022/04/15 02:43:49;;;;;;;30.23;15.57;;;7.50;99.90;;;;;;5131894;27;20053;-27
2022/04/15 02:46:15;;;;;;;25.20;15.02;;;7.60;99.90;;;;;;5134789;27;20043;-27
2022/04/15 02:48:41;;;;;;;29.83;17.00;;;7.60;99.90;;;;;;5135783;27;20046;-27
2022/04/15 02:51:07;;;;;;;29.60;18.00;;;7.50;99.90;;;;;;5101538;27;20341;-27
2022/04/15 02:53:34;;;;;;;28.92;19.52;;;7.50;99.90;;;;;;5135686;27;20174;-27
2022/04/15 02:56:00;;;;;;;28.90;20.80;;;7.50;99.90;;;;;;5136496;27;20047;-27
2022/04/15 02:58:25;;;;;;;28.05;21.50;;;7.50;84.70;;;;;;5133852;27;20058;-28
2022/04/15 03:00:51;;;;;;;28.27;21.40;;;7.50;36.70;;;;;;5135572;27;20043;-27
2022/04/15 03:03:17;;;;;;;25.00;20.25;;;7.40;1.00;;;;;;5136104;27;20376;-27
2022/04/15 03:05:43;;;;;;;27.15;19.92;;;7.40;1.00;;;;;;5136036;27;20074;-27
2022/04/15 03:08:09;;;;;;;22.40;16.75;;;7.40;1.00;;;;;;5136202;27;20484;-27
2022/04/15 03:10:35;;;;;;;21.48;15.60;;;7.30;1.00;;;;;;5100262;27;20055;-27
2022/04/15 03:13:01;;;;;;;16.27;10.13;;;7.30;1.00;;;;;;5133646;27;20122;-27
2022/04/15 03:15:27;;;;;;;14.13;10.63;;;7.30;1.00;;;;;;5117042;27;20088;-27
2022/04/15 03:17:53;;;;;;;12.50;8.68;;;7.30;1.00;;;;;;5135258;27;20039;-28
2022/04/15 03:20:19;;;;;;;11.10;8.55;;;7.30;1.00;;;;;;5135770;27;20469;-27
2022/04/15 03:22:45;;;;;;;11.02;8.27;;;7.20;1.00;;;;;;5135245;27;20172;-27
2022/04/15 03:25:14;;;;;;;13.00;8.57;;;7.20;99.90;;;;;;5116557;27;20119;-27
2022/04/15 03:27:43;;;;;;;9.32;7.50;;;7.30;99.90;;;;;;5126465;27;20039;-27
2022/04/15 03:30:09;;;;;;;10.10;6.55;;;7.20;99.90;;;;;;5114475;28;20497;-27
2022/04/15 03:32:43;;;;;;;6.85;6.10;;;7.20;99.90;;;;;;5114790;28;20039;-27
2022/04/15 03:35:09;;;;;;;6.28;5.68;;;7.10;99.90;;;;;;5101367;27;20058;-27
2022/04/15 03:37:34;;;;;;;7.90;6.32;;;7.10;1.00;;;;;;5116764;27;20047;-27
2022/04/15 03:40:03;;;;;;;8.27;5.70;;;7.00;1.00;;;;;;5117224;27;20131;-27
2022/04/15 03:42:29;;;;;;;5.53;4.80;;;7.00;1.00;;;;;;5114819;27;20089;-26
2022/04/15 03:44:55;;;;;;;8.32;5.63;;;7.00;1.00;;;;;;5134871;27;20087;-28
2022/04/15 03:47:20;;;;;;;6.80;5.47;;;7.00;1.00;;;;;;5116437;27;20075;-27
2022/04/15 03:49:47;;;;;;;9.70;7.28;;;6.90;1.00;;;;;;5116389;27;20062;-27
2022/04/15 03:52:13;;;;;;;8.13;5.32;;;6.90;1.00;;;;;;5116688;27;20537;-27
2022/04/15 03:54:41;;;;;;;8.27;6.30;;;6.90;1.00;;;;;;5116493;27;20043;-27
2022/04/15 03:57:07;;;;;;;8.00;6.18;;;6.90;1.00;;;;;;5125268;27;20043;-27
2022/04/15 03:59:32;;;;;;;8.52;6.10;;;6.80;1.00;;;;;;5096087;28;20396;-27
2022/04/15 04:01:58;;;;;;;8.32;4.78;;;6.80;1.00;;;;;;5114103;28;20054;-29
2022/04/15 04:04:24;;;;;;;7.28;5.00;;;6.80;1.00;;;;;;5098549;28;20039;-27
2022/04/15 04:06:50;;;;;;;11.32;5.18;;;6.80;1.00;;;;;;5116315;28;20137;-27
2022/04/15 04:09:15;;;;;;;8.75;4.93;;;6.80;1.00;;;;;;5135340;28;20035;-27
2022/04/15 04:11:41;;;;;;;10.43;5.28;;;6.80;1.00;;;;;;5110381;28;20042;-28
2022/04/15 04:14:07;;;;;;;7.00;5.30;;;6.80;1.00;;;;;;5113963;28;20552;-27
2022/04/15 04:16:32;;;;;;;7.03;3.92;;;6.80;1.00;;;;;;5114013;28;20047;-27
2022/04/15 04:18:58;;;;;;;6.40;4.25;;;6.80;99.90;;;;;;5114170;28;20397;-28
2022/04/15 04:21:24;;;;;;;6.30;4.68;;;6.80;99.90;;;;;;5113905;28;20054;-27
2022/04/15 04:23:50;;;;;;;6.88;4.07;;;6.80;99.90;;;;;;5096337;28;20140;-27
2022/04/15 04:26:16;;;;;;;4.13;3.55;;;6.80;99.90;;;;;;5115021;28;20052;-27
2022/04/15 04:28:41;;;;;;;5.90;3.17;;;6.70;99.90;;;;;;5095621;28;20050;-27
2022/04/15 04:31:07;;;;;;;4.55;1.98;;;6.70;99.90;;;;;;5079125;28;20044;-28
2022/04/15 04:33:33;;;;;;;5.07;2.65;;;6.70;99.90;;;;;;5114915;28;20043;-29
2022/04/15 04:36:01;;;;;;;5.15;3.55;;;6.70;99.90;;;;;;5115129;28;20107;-29
2022/04/15 04:38:27;;;;;;;6.10;3.80;;;6.70;99.90;;;;;;5135126;28;20118;-29
2022/04/15 04:40:52;;;;;;;6.18;4.18;;;6.70;99.90;;;;;;5114087;28;20077;-29
2022/04/15 04:43:20;;;;;;;9.43;4.30;;;6.70;99.90;;;;;;5134295;28;20091;-29
2022/04/15 04:45:46;;;;;;;6.80;4.45;;;6.70;1.00;;;;;;5134811;28;20075;-29
2022/04/15 04:48:12;;;;;;;4.05;2.75;;;6.70;1.00;;;;;;5134212;28;20102;-29
2022/04/15 04:50:38;;;;;;;3.97;3.08;;;6.60;1.00;;;;;;5134203;28;20041;-29
2022/04/15 04:53:04;;;;;;;7.28;3.13;;;6.60;1.00;;;;;;5116362;28;20086;-29
2022/04/15 04:55:30;;;;;;;3.75;2.60;;;6.60;1.00;;;;;;5132418;28;20074;-28
2022/04/15 04:57:56;;;;;;;5.13;2.70;;;6.70;99.90;;;;;;5116053;28;20047;-27
2022/04/15 05:00:22;;;;;;;3.78;2.35;;;6.70;99.90;;;;;;5134080;28;20055;-27
2022/04/15 05:02:50;;;;;;;4.82;3.03;;;6.60;99.90;;;;;;5132309;28;20062;-27
2022/04/15 05:05:16;;;;;;;3.08;2.78;;;6.60;99.90;;;;;;5116144;28;20050;-27
2022/04/15 05:07:41;;;;;;;6.82;3.13;;;6.60;99.90;;;;;;5119372;28;20039;-29
2022/04/15 05:10:07;;;;;;;3.95;2.75;;;6.60;99.90;;;;;;5117046;27;20047;-29
2022/04/15 05:12:33;;;;;;;3.45;3.03;;;6.60;99.90;;;;;;5137698;27;20114;-29
2022/04/15 05:14:59;;;;;;;3.70;2.90;;;6.60;99.90;;;;;;5118974;27;20622;-29
2022/04/15 05:17:24;;;;;;;3.33;1.92;;;6.70;99.90;;;;;;5137862;27;20122;-29
2022/04/15 05:19:50;;;;;;;5.93;2.88;;;6.60;99.90;;;;;;5137505;27;20392;-29
2022/04/15 05:22:16;;;;;;;8.38;3.03;;;6.60;99.90;;;;;;5138074;27;20162;-27
2022/04/15 05:24:42;;;;;;;5.43;3.05;;;6.60;99.90;;;;;;5136124;27;20055;-27
2022/04/15 05:27:09;;;;;;;7.63;3.10;;;6.60;1.00;;;;;;5137079;27;20046;-27
2022/04/15 05:29:35;;;;;;;12.05;4.15;;;6.60;1.00;;;;;;5103461;28;20405;-27
2022/04/15 05:32:03;;;;;;;4.40;3.83;;;6.60;1.00;;;;;;5116833;28;20052;-27
2022/04/15 05:34:28;;;;;;;5.15;3.55;;;6.60;1.00;;;;;;5116718;28;20055;-27
2022/04/15 05:36:54;;;;;;;6.85;4.32;;;6.60;1.00;;;;;;5116602;28;20105;-27
2022/04/15 05:39:20;;;;;;;6.25;4.63;;;6.60;1.00;;;;;;5116514;28;20036;-27
2022/04/15 05:41:46;;;;;;;5.28;3.10;;;6.60;1.00;;;;;;5117648;27;20100;-27
2022/04/15 05:44:13;;;;;;;6.82;3.85;;;6.60;1.00;;;;;;5098320;28;20051;-27
2022/04/15 05:46:42;;;;;;;5.63;3.60;;;6.60;1.00;;;;;;5116432;28;20523;-27
2022/04/15 05:49:13;;;;;;;4.68;3.63;;;6.60;1.00;;;;;;5081255;28;20044;-27
2022/04/15 05:51:40;;;;;;;5.78;3.15;;;6.70;1.00;;;;;;5099009;28;20464;-27
2022/04/15 05:54:06;;;;;;;4.75;4.28;;;6.70;1.00;;;;;;5116979;27;20474;-27
2022/04/15 05:56:32;;;;;;;7.25;4.47;;;6.70;99.90;;;;;;5115508;27;20078;-27
2022/04/15 05:58:57;;;;;;;6.65;5.35;;;6.70;99.90;;;;;;5137575;27;20043;-27
2022/04/15 06:01:25;;;;;;;10.80;6.78;;;6.80;99.90;;;;;;5119463;27;20074;-27
2022/04/15 06:03:51;;;;;;;9.82;7.13;;;6.80;99.90;;;;;;5136700;27;20053;-27
2022/04/15 06:06:17;;;;;;;8.93;7.28;;;6.80;99.90;;;;;;5107905;28;20043;-27
2022/04/15 06:08:45;;;;;;;7.80;6.63;;;6.90;1.00;;;;;;5098644;28;20097;-28
2022/04/15 06:11:15;;;;;;;13.20;8.73;;;6.90;1.00;;;;;;5098864;28;20039;-27
2022/04/15 06:13:47;;;;;;;9.85;7.90;;;7.00;1.00;;;;;;5098962;28;20148;-27
2022/04/15 06:16:17;;;;;;;13.65;8.63;;;7.00;1.00;;;;;;5116505;28;20091;-27
2022/04/15 06:18:47;;;;;;;10.15;8.18;;;7.00;1.00;;;;;;5098392;28;20415;-27
2022/04/15 06:21:16;;;;;;;12.65;9.25;;;7.10;1.00;;;;;;5119333;27;20058;-27
2022/04/15 06:23:49;;;;;;;10.27;8.68;;;7.10;1.00;;;;;;5098006;28;20486;-27
2022/04/15 06:26:15;;;;;;;11.02;8.15;;;7.20;1.00;;;;;;5116840;27;20452;-27
2022/04/15 06:28:41;;;;;;;12.30;7.75;;;7.20;1.00;;;;;;5097666;28;20149;-27
2022/04/15 06:31:09;;;;;;;13.25;8.85;;;7.30;1.00;;;;;;5097449;28;20096;-27
2022/04/15 06:33:37;;;;;;;12.30;9.02;;;7.30;1.00;;;;;;5097292;28;20047;-27
2022/04/15 06:36:06;;;;;;;10.13;8.25;;;7.30;99.90;;;;;;5080670;28;20058;-27
2022/04/15 06:38:34;;;;;;;17.42;11.40;;;7.30;99.90;;;;;;5115332;28;20532;-27
2022/04/15 06:41:02;;;;;;;13.05;10.27;;;7.30;1.00;;;;;;5116192;27;20048;-27
2022/04/15 06:43:32;;;;;;;13.10;9.57;;;7.40;1.00;;;;;;5097697;28;20050;-27
2022/04/15 06:45:58;;;;;;;15.35;10.25;;;7.40;1.00;;;;;;5116056;28;20385;-27
2022/04/15 06:48:24;;;;;;;14.18;9.23;;;7.40;99.90;;;;;;5115074;28;20042;-27
2022/04/15 06:50:54;;;;;;;13.73;10.32;;;7.50;99.90;;;;;;5097859;28;20086;-27
2022/04/15 06:53:23;;;;;;;15.95;10.18;;;7.60;99.90;;;;;;5115126;28;20134;-27
2022/04/15 06:55:50;;;;;;;19.65;11.20;;;7.60;99.90;;;;;;5116176;27;20127;-27
2022/04/15 06:58:16;;;;;;;14.25;9.75;;;7.60;99.90;;;;;;5115521;28;20039;-27
2022/04/15 07:00:41;;;;;;;21.05;11.70;;;7.70;99.90;;;;;;5115804;28;20047;-27
2022/04/15 07:03:12;;;;;;;17.00;10.13;;;7.80;99.90;;;;;;5115442;28;20079;-27
2022/04/15 07:05:43;;;;;;;17.52;9.40;;;7.80;99.90;;;;;;5097814;28;20044;-28
2022/04/15 07:08:11;;;;;;;13.52;8.75;;;7.90;99.90;;;;;;5114759;28;20084;-27
2022/04/15 07:10:37;;;;;;;17.50;8.63;;;8.00;99.90;;;;;;5097694;28;20126;-27
2022/04/15 07:13:06;;;;;;;13.07;7.30;;;8.10;99.90;;;;;;5114801;28;20043;-29
2022/04/15 07:15:32;;;;;;;19.20;8.10;;;8.40;99.90;;;;;;5116965;27;20043;-27
2022/04/15 07:17:59;;;;;;;9.77;6.15;;;8.50;1.50;;;;;;5127907;27;20039;-27
2022/04/15 07:20:30;;;;;;;12.35;6.05;;;8.40;1.00;;;;;;5112521;27;20069;-27
2022/04/15 07:23:01;;;;;;;16.20;6.65;;;8.40;1.00;;;;;;5115429;28;20052;-27
2022/04/15 07:25:34;;;;;;;12.10;5.55;;;8.50;1.00;;;;;;5114644;28;20047;-27
2022/04/15 07:28:02;;;;;;;;;;;8.60;1.00;;;;;;5097133;28;20478;-27
2022/04/15 07:30:29;;;;;;;15.40;6.20;;;8.60;1.00;;;;;;5096871;28;19919;-27
2022/04/15 07:32:59;;;;;;;10.40;6.53;;;8.70;1.00;;;;;;5095578;28;20059;-27
2022/04/15 07:35:25;;;;;;;11.40;6.25;;;8.80;1.00;;;;;;5096691;28;20040;-27
2022/04/15 07:37:51;;;;;;;10.07;6.32;;;8.90;1.00;;;;;;5096257;28;20046;-28
2022/04/15 07:40:27;;;;;;;12.55;5.70;;;8.80;1.00;;;;;;5079514;28;20042;-27
2022/04/15 07:42:57;;;;;;;17.15;7.40;;;8.80;1.00;;;;;;5111821;27;20497;-27
2022/04/15 07:45:27;;;;;;;13.00;6.50;;;8.70;99.90;;;;;;5134835;27;20508;-29
2022/04/15 07:47:55;;;;;;;13.68;6.13;;;8.70;99.90;;;;;;5115508;27;20047;-27
2022/04/15 07:50:31;;;;;;;9.98;5.15;;;8.70;99.90;;;;;;5096143;28;20043;-27
2022/04/15 07:53:01;;;;;;;10.10;4.80;;;8.90;1.00;;;;;;5097254;28;20100;-27
2022/04/15 07:55:29;;;;;;;7.28;4.78;;;9.10;99.90;;;;;;5096661;28;20392;-27
2022/04/15 07:58:01;;;;;;;9.40;5.18;;;9.10;99.90;;;;;;5123683;27;20061;-27
2022/04/15 08:00:29;;;;;;;8.98;4.82;;;9.20;99.90;;;;;;5104260;28;20119;-27
2022/04/15 08:02:54;;;;;;;10.75;5.18;;;9.30;99.90;;;;;;5101517;28;20565;-27
2022/04/15 08:05:20;;;;;;;10.90;4.88;;;9.40;99.90;;;;;;5131294;28;20122;-27
2022/04/15 08:07:51;;;;;;;9.48;5.10;;;9.60;99.90;;;;;;5095765;28;20113;-27
2022/04/15 08:10:16;;;;;;;7.80;3.70;;;9.70;99.90;;;;;;5096614;28;20086;-27
2022/04/15 08:12:49;;;;;;;8.43;4.45;;;9.70;99.90;;;;;;5115075;28;20348;-27
2022/04/15 08:15:15;;;;;;;13.75;4.28;;;9.80;99.90;;;;;;5096876;28;20044;-27
2022/04/15 08:17:46;;;;;;;10.93;4.82;;;10.00;99.90;;;;;;5128917;28;20510;-27
2022/04/15 08:20:14;;;;;;;8.23;4.88;;;10.00;99.90;;;;;;5128403;28;20122;-27
2022/04/15 08:22:44;;;;;;;7.45;4.25;;;10.10;99.90;;;;;;5095890;28;20056;-30
2022/04/15 08:25:15;;;;;;;9.93;4.97;;;10.20;99.90;;;;;;5113912;28;20083;-29
2022/04/15 08:27:43;;;;;;;10.45;4.25;;;10.40;99.90;;;;;;5115728;28;20040;-30
2022/04/15 08:30:09;;;;;;;8.05;4.35;;;10.50;99.90;;;;;;5097069;28;20115;-30
2022/04/15 08:32:35;;;;;;;8.90;4.60;;;10.70;99.90;;;;;;5061871;28;20055;-29
2022/04/15 08:35:07;;;;;;;8.68;4.43;;;10.70;99.90;;;;;;5113818;28;20043;-29
2022/04/15 08:37:39;;;;;;;9.88;4.60;;;10.80;99.90;;;;;;5115065;28;20381;-30
2022/04/15 08:40:11;;;;;;;6.68;3.95;;;10.70;46.40;;;;;;5111805;28;20047;-30
2022/04/15 08:42:39;;;;;;;11.02;5.10;;;10.80;99.40;;;;;;5132620;27;20039;-29
2022/04/15 08:45:07;;;;;;;11.75;4.57;;;10.80;99.90;;;;;;5086499;27;20053;-29
2022/04/15 08:47:33;;;;;;;8.68;4.63;;;10.80;89.10;;;;;;5138229;27;20126;-30
2022/04/15 08:49:59;;;;;;;12.02;4.93;;;10.70;99.90;;;;;;5138963;27;20074;-29
2022/04/15 08:52:25;;;;;;;7.20;3.25;;;10.80;99.90;;;;;;5120359;27;20130;-27
2022/04/15 08:54:53;;;;;;;7.38;3.95;;;11.10;99.90;;;;;;5138861;27;20054;-27
2022/04/15 08:57:21;;;;;;;6.90;3.70;;;11.20;16.00;;;;;;5136175;27;20039;-28
2022/04/15 08:59:47;;;;;;;9.70;4.35;;;10.90;8.40;;;;;;5086420;27;20391;-27
2022/04/15 09:02:27;;;;;;;7.75;4.72;;;10.80;40.70;;;;;;5130423;27;20110;-27
2022/04/15 09:04:56;;;;;;;7.03;4.18;;;10.70;85.50;;;;;;5129479;27;20043;-28
2022/04/15 09:07:22;;;;;;;8.70;4.25;;;10.90;19.30;;;;;;5119409;27;20054;-28
2022/04/15 09:09:57;;;;;;;10.82;5.57;;;11.70;84.50;;;;;;5102011;27;20115;-27
2022/04/15 09:12:29;;;;;;;11.35;5.20;;;12.80;14.30;;;;;;5119872;27;20058;-28
2022/04/15 09:15:07;;;;;;;7.93;3.80;;;13.50;1.00;;;;;;5120039;27;20047;-27
2022/04/15 09:17:36;;;;;;;5.68;3.25;;;13.60;1.00;;;;;;5135896;27;20039;-28
2022/04/15 09:20:06;;;;;;;8.00;4.03;;;14.10;1.00;;;;;;5136201;27;20039;-28
2022/04/15 09:22:35;;;;;;;6.85;3.72;;;13.40;1.00;;;;;;5098713;28;20052;-27
2022/04/15 09:25:02;;;;;;;6.38;4.18;;;12.70;1.00;;;;;;5117680;28;20393;-28
2022/04/15 09:27:28;;;;;;;6.63;4.18;;;12.50;1.00;;;;;;5098589;28;20054;-28
2022/04/15 09:29:54;;;;;;;8.73;4.20;;;12.60;1.00;;;;;;5116734;28;20054;-28
2022/04/15 09:32:22;;;;;;;7.85;4.70;;;13.00;1.00;;;;;;5098224;28;20047;-27
2022/04/15 09:35:05;;;;;;;12.25;5.28;;;12.50;1.00;;;;;;5117263;28;20071;-27
2022/04/15 09:37:38;;;;;;;8.32;4.70;;;11.90;1.00;;;;;;5116600;28;20048;-27
2022/04/15 09:40:12;;;;;;;10.48;5.03;;;11.70;1.00;;;;;;5132033;27;20103;-27
2022/04/15 09:42:49;;;;;;;9.05;5.10;;;11.40;1.00;;;;;;5137179;27;20130;-27
2022/04/15 09:45:18;;;;;;;10.70;4.50;;;11.60;1.00;;;;;;5135986;27;20556;-28
2022/04/15 09:47:57;;;;;;;8.32;4.68;;;11.30;1.00;;;;;;5116909;27;20050;-27
2022/04/15 09:50:36;;;;;;;5.13;4.03;;;11.70;1.00;;;;;;5119422;27;20446;-28
2022/04/15 09:53:13;;;;;;;7.85;4.07;;;12.40;1.00;;;;;;5121313;27;20546;-27
2022/04/15 09:55:46;;;;;;;9.30;4.43;;;13.00;1.00;;;;;;5123637;27;20070;-28
2022/04/15 09:58:13;;;;;;;;;;;13.60;1.00;;;;;;5136959;27;20551;-27
2022/04/15 10:00:40;;;;;;;10.90;4.07;;;13.10;99.90;;;;;;5135013;27;20011;-28
2022/04/15 10:03:14;;;;;;;7.93;4.60;;;12.50;99.90;;;;;;5136787;27;20055;-28
2022/04/15 10:05:42;;;;;;;6.57;4.75;;;12.20;1.00;;;;;;5101933;27;20047;-28
2022/04/15 10:08:09;;;;;;;9.98;4.90;;;12.10;1.00;;;;;;5116521;27;20104;-28
2022/04/15 10:10:36;;;;;;;7.25;4.20;;;12.40;1.00;;;;;;5083244;28;20477;-27
2022/04/15 10:13:06;;;;;;;8.13;4.03;;;12.60;1.00;;;;;;5116051;28;20144;-27
2022/04/15 10:15:36;;;;;;;10.77;4.15;;;12.60;99.90;;;;;;5117339;27;20046;-27
2022/04/15 10:18:03;;;;;;;9.55;4.22;;;13.00;1.00;;;;;;5119759;27;20488;-27
2022/04/15 10:20:33;;;;;;;10.60;4.70;;;12.60;99.90;;;;;;5117912;27;20047;-28
2022/04/15 10:23:04;;;;;;;6.32;3.70;;;12.30;1.00;;;;;;5120462;27;20058;-28
2022/04/15 10:25:34;;;;;;;6.20;3.97;;;12.10;1.00;;;;;;5097776;28;20055;-28
2022/04/15 10:28:18;;;;;;;9.57;4.28;;;12.00;1.00;;;;;;5097897;28;20048;-27
2022/04/15 10:31:03;;;;;;;7.68;3.92;;;12.10;1.00;;;;;;5116807;27;20104;-28
2022/04/15 10:33:30;;;;;;;9.25;4.13;;;11.90;1.00;;;;;;5097684;28;20059;-28
2022/04/15 10:36:30;;;;;;;9.02;3.58;;;11.70;1.00;;;;;;5115228;28;20496;-27
2022/04/15 10:39:02;;;;;;;8.55;3.97;;;11.60;1.00;;;;;;5101495;28;20151;-28
2022/04/15 10:41:50;;;;;;;9.50;4.32;;;11.30;1.00;;;;;;5115311;28;20062;-27
2022/04/15 10:44:38;;;;;;;12.30;5.18;;;11.20;1.00;;;;;;5100820;28;20112;-28
2022/04/15 10:47:22;;;;;;;7.50;4.35;;;11.10;1.00;;;;;;5116071;28;20062;-27
2022/04/15 10:50:09;;;;;;;7.68;4.15;;;11.00;1.00;;;;;;5115162;28;20085;-28
2022/04/15 10:52:35;;;;;;;10.00;4.85;;;10.90;1.00;;;;;;5116017;28;20404;-27
2022/04/15 10:55:05;;;;;;;9.95;4.43;;;10.90;1.00;;;;;;5100397;27;20058;-27
2022/04/15 10:57:40;;;;;;;8.57;3.95;;;10.80;1.00;;;;;;5116906;27;20438;-27
2022/04/15 11:03:23;;;;;;;7.68;3.47;;;10.70;1.00;;;;;;5114940;28;20043;-27
2022/04/15 11:05:50;;;;;;;7.72;3.97;;;10.80;1.00;;;;;;5114777;28;20050;-27
2022/04/15 11:08:20;;;;;;;5.68;3.90;;;10.60;1.00;;;;;;5079243;28;20056;-27
2022/04/15 11:10:54;;;;;;;7.68;3.95;;;10.60;1.00;;;;;;5115547;28;20040;-27
2022/04/15 11:13:31;;;;;;;8.02;4.47;;;10.60;1.00;;;;;;5115536;27;20393;-27
2022/04/15 11:18:55;;;;;;;4.53;2.95;;;10.70;1.00;;;;;;5097545;28;20396;-27
2022/04/15 11:21:36;;;;;;;7.93;4.20;;;10.50;1.00;;;;;;5129493;27;20059;-27
2022/04/15 11:24:09;;;;;;;8.77;4.63;;;10.40;1.00;;;;;;5134901;27;20049;-27
2022/04/15 11:26:40;;;;;;;;;;;10.30;1.00;;;;;;5135704;27;20476;-27
2022/04/15 11:29:09;;;;;;;12.10;4.20;;;10.30;1.00;;;;;;5097642;27;19919;-27
2022/04/15 11:31:36;;;;;;;6.60;4.20;;;10.20;1.00;;;;;;5113389;27;20051;-27
2022/04/15 11:34:10;;;;;;;10.75;4.57;;;10.20;1.00;;;;;;5118037;27;20047;-27
2022/04/15 11:36:49;;;;;;;5.93;4.25;;;10.20;1.00;;;;;;5095037;27;20047;-27
2022/04/15 11:39:17;;;;;;;9.70;4.90;;;10.20;1.00;;;;;;5134789;27;20050;-27
2022/04/15 11:41:44;;;;;;;7.32;4.25;;;10.30;1.00;;;;;;5132640;27;20416;-27
2022/04/15 11:44:10;;;;;;;8.85;4.65;;;10.40;1.00;;;;;;5097616;28;20047;-27
2022/04/15 11:46:38;;;;;;;9.45;4.75;;;10.50;1.00;;;;;;5114187;28;20087;-27
2022/04/15 11:49:21;;;;;;;11.38;5.40;;;10.60;1.00;;;;;;5114174;28;20126;-27
2022/04/15 11:51:50;;;;;;;8.93;5.37;;;10.60;1.00;;;;;;5115467;28;20427;-28
2022/04/15 11:54:22;;;;;;;9.70;4.60;;;10.80;1.00;;;;;;5114385;27;20053;-27
2022/04/15 11:56:59;;;;;;;12.18;5.45;;;11.00;1.00;;;;;;5100188;27;20120;-28
2022/04/15 11:59:30;;;;;;;11.57;5.55;;;11.00;1.00;;;;;;5133078;27;20066;-27
2022/04/15 12:01:58;;;;;;;7.65;4.10;;;10.90;1.00;;;;;;5117382;28;20426;-28
2022/04/15 12:04:24;;;;;;;6.35;3.97;;;10.70;1.00;;;;;;5134149;27;20075;-28
2022/04/15 12:06:50;;;;;;;8.98;4.65;;;10.50;1.00;;;;;;5116305;28;20089;-27
2022/04/15 12:09:19;;;;;;;5.97;4.10;;;10.70;1.00;;;;;;5117568;28;20046;-28
2022/04/15 12:11:44;;;;;;;7.55;4.43;;;10.80;1.00;;;;;;5113547;28;20122;-28
2022/04/15 12:14:13;;;;;;;9.85;5.28;;;10.80;1.00;;;;;;5115022;28;20075;-27
2022/04/15 12:16:39;;;;;;;14.20;5.35;;;10.80;1.00;;;;;;5118101;28;20138;-27
2022/04/15 12:19:06;;;;;;;9.23;4.43;;;10.70;1.00;;;;;;5116403;28;20040;-27
2022/04/15 12:21:40;;;;;;;8.43;4.68;;;10.60;1.00;;;;;;5117885;28;20108;-27
2022/04/15 12:24:05;;;;;;;;;;;10.50;1.00;;;;;;5119138;28;20108;-28
2022/04/15 12:26:54;;;;;;;7.00;4.28;;;10.50;1.00;;;;;;5118723;28;20290;-27
2022/04/15 12:32:26;;;;;;;10.90;5.30;;;10.30;1.00;;;;;;5117720;28;20048;-29
2022/04/15 12:34:54;;;;;;;13.80;6.40;;;10.30;6.60;;;;;;5119698;27;20044;-27
2022/04/15 12:37:56;;;;;;;11.75;6.15;;;10.20;15.40;;;;;;5118543;27;20052;-27
2022/04/15 12:40:24;;;;;;;9.15;6.63;;;10.20;76.40;;;;;;5117633;28;20052;-27
2022/04/15 12:42:51;;;;;;;11.45;6.20;;;10.30;41.90;;;;;;5121564;27;20043;-27
2022/04/15 12:45:21;;;;;;;10.35;5.68;;;10.30;38.70;;;;;;5119381;27;20505;-28
2022/04/15 12:48:07;;;;;;;10.93;5.63;;;10.30;60.40;;;;;;5137928;27;20100;-27
2022/04/15 12:50:35;;;;;;;12.00;6.15;;;10.50;51.60;;;;;;5138068;27;20051;-28
2022/04/15 12:53:12;;;;;;;10.63;5.82;;;10.50;39.20;;;;;;5113547;28;20047;-27
2022/04/15 12:55:38;;;;;;;8.63;5.60;;;10.50;30.00;;;;;;5117081;28;20500;-27
2022/04/15 12:58:19;;;;;;;10.00;5.45;;;10.60;33.40;;;;;;5105290;27;20473;-28
2022/04/15 13:00:48;;;;;;;10.40;5.55;;;10.70;28.10;;;;;;5138367;27;20082;-27
2022/04/15 13:03:17;;;;;;;11.00;4.97;;;10.70;17.20;;;;;;5130168;27;20050;-27
2022/04/15 13:05:47;;;;;;;8.32;4.68;;;10.80;8.80;;;;;;5098830;28;20043;-27
2022/04/15 13:08:17;;;;;;;9.75;4.97;;;10.90;1.00;;;;;;5098865;28;20073;-27
2022/04/15 13:10:48;;;;;;;7.32;4.00;;;11.00;1.00;;;;;;5117115;28;20047;-27